sensor_id;sensor_type;location;lat;lon;timestamp;P1;durP1;ratioP1;P2;durP2;ratioP2
75739;SDS011;64357;51.344;6.550;2022-11-11T00:00:59;8.60;;;2.45;;
75739;SDS011;64357;51.344;6.550;2022-11-11T00:03:27;8.27;;;2.60;;
75739;SDS011;64357;51.344;6.550;2022-11-11T00:05:53;7.88;;;2.70;;
75739;SDS011;64357;51.344;6.550;2022-11-11T00:08:20;9.47;;;2.50;;
75739;SDS011;64357;51.344;6.550;2022-11-11T00:10:48;9.30;;;2.63;;
75739;SDS011;64357;51.344;6.550;2022-11-11T00:13:13;7.93;;;2.50;;
75739;SDS011;64357;51.344;6.550;2022-11-11T00:15:39;10.90;;;2.80;;
75739;SDS011;64357;51.344;6.550;2022-11-11T00:18:05;9.88;;;3.00;;
75739;SDS011;64357;51.344;6.550;2022-11-11T00:20:49;10.48;;;2.60;;
75739;SDS011;64357;51.344;6.550;2022-11-11T00:23:33;7.65;;;2.78;;
75739;SDS011;64357;51.344;6.550;2022-11-11T00:26:17;7.05;;;2.60;;
75739;SDS011;64357;51.344;6.550;2022-11-11T00:28:42;9.97;;;2.30;;
75739;SDS011;64357;51.344;6.550;2022-11-11T00:31:09;9.23;;;2.60;;
75739;SDS011;64357;51.344;6.550;2022-11-11T00:33:35;7.18;;;2.60;;
75739;SDS011;64357;51.344;6.550;2022-11-11T00:36:01;9.13;;;2.90;;
75739;SDS011;64357;51.344;6.550;2022-11-11T00:38:30;10.75;;;3.05;;
75739;SDS011;64357;51.344;6.550;2022-11-11T00:41:11;7.18;;;2.58;;
75739;SDS011;64357;51.344;6.550;2022-11-11T00:43:37;8.65;;;2.72;;
75739;SDS011;64357;51.344;6.550;2022-11-11T00:46:05;8.10;;;2.83;;
75739;SDS011;64357;51.344;6.550;2022-11-11T00:48:49;9.98;;;2.90;;
75739;SDS011;64357;51.344;6.550;2022-11-11T00:51:33;7.90;;;3.10;;
75739;SDS011;64357;51.344;6.550;2022-11-11T00:53:58;7.73;;;2.40;;
75739;SDS011;64357;51.344;6.550;2022-11-11T00:56:26;12.63;;;3.08;;
75739;SDS011;64357;51.344;6.550;2022-11-11T00:58:51;12.20;;;3.30;;
75739;SDS011;64357;51.344;6.550;2022-11-11T01:01:19;11.30;;;3.17;;
75739;SDS011;64357;51.344;6.550;2022-11-11T01:03:44;9.80;;;2.67;;
75739;SDS011;64357;51.344;6.550;2022-11-11T01:06:14;8.90;;;3.08;;
75739;SDS011;64357;51.344;6.550;2022-11-11T01:08:39;8.52;;;3.22;;
75739;SDS011;64357;51.344;6.550;2022-11-11T01:11:16;9.07;;;3.10;;
75739;SDS011;64357;51.344;6.550;2022-11-11T01:13:45;11.15;;;3.50;;
75739;SDS011;64357;51.344;6.550;2022-11-11T01:16:13;10.32;;;3.28;;
75739;SDS011;64357;51.344;6.550;2022-11-11T01:18:40;9.93;;;3.33;;
75739;SDS011;64357;51.344;6.550;2022-11-11T01:21:07;8.38;;;3.08;;
75739;SDS011;64357;51.344;6.550;2022-11-11T01:23:37;8.45;;;2.55;;
75739;SDS011;64357;51.344;6.550;2022-11-11T01:26:11;8.20;;;2.63;;
75739;SDS011;64357;51.344;6.550;2022-11-11T01:28:41;11.38;;;3.50;;
75739;SDS011;64357;51.344;6.550;2022-11-11T01:31:07;10.70;;;3.35;;
75739;SDS011;64357;51.344;6.550;2022-11-11T01:33:35;11.43;;;3.50;;
75739;SDS011;64357;51.344;6.550;2022-11-11T01:36:02;10.02;;;3.40;;
75739;SDS011;64357;51.344;6.550;2022-11-11T01:38:28;9.05;;;3.17;;
75739;SDS011;64357;51.344;6.550;2022-11-11T01:40:54;10.47;;;2.90;;
75739;SDS011;64357;51.344;6.550;2022-11-11T01:43:22;11.13;;;2.78;;
75739;SDS011;64357;51.344;6.550;2022-11-11T01:45:52;9.73;;;3.15;;
75739;SDS011;64357;51.344;6.550;2022-11-11T01:51:40;8.65;;;2.83;;
75739;SDS011;64357;51.344;6.550;2022-11-11T01:54:13;10.10;;;3.47;;
75739;SDS011;64357;51.344;6.550;2022-11-11T01:56:56;10.40;;;3.25;;
75739;SDS011;64357;51.344;6.550;2022-11-11T01:59:30;9.32;;;3.35;;
75739;SDS011;64357;51.344;6.550;2022-11-11T02:01:57;8.07;;;3.20;;
75739;SDS011;64357;51.344;6.550;2022-11-11T02:04:25;11.45;;;3.25;;
75739;SDS011;64357;51.344;6.550;2022-11-11T02:07:09;11.48;;;3.20;;
75739;SDS011;64357;51.344;6.550;2022-11-11T02:09:38;10.70;;;3.30;;
75739;SDS011;64357;51.344;6.550;2022-11-11T02:12:08;10.32;;;3.75;;
75739;SDS011;64357;51.344;6.550;2022-11-11T02:14:53;11.70;;;3.22;;
75739;SDS011;64357;51.344;6.550;2022-11-11T02:17:23;8.50;;;2.83;;
75739;SDS011;64357;51.344;6.550;2022-11-11T02:23:00;11.70;;;3.10;;
75739;SDS011;64357;51.344;6.550;2022-11-11T02:25:15;10.07;;;2.83;;
75739;SDS011;64357;51.344;6.550;2022-11-11T02:27:47;12.52;;;2.67;;
75739;SDS011;64357;51.344;6.550;2022-11-11T02:30:18;7.68;;;2.55;;
75739;SDS011;64357;51.344;6.550;2022-11-11T02:32:48;8.60;;;2.90;;
75739;SDS011;64357;51.344;6.550;2022-11-11T02:37:42;9.57;;;2.72;;
75739;SDS011;64357;51.344;6.550;2022-11-11T02:40:15;12.45;;;2.60;;
75739;SDS011;64357;51.344;6.550;2022-11-11T02:42:43;10.85;;;3.08;;
75739;SDS011;64357;51.344;6.550;2022-11-11T02:45:08;9.03;;;2.70;;
75739;SDS011;64357;51.344;6.550;2022-11-11T02:47:34;8.75;;;2.75;;
75739;SDS011;64357;51.344;6.550;2022-11-11T02:50:02;7.82;;;2.50;;
75739;SDS011;64357;51.344;6.550;2022-11-11T02:52:27;8.75;;;2.65;;
75739;SDS011;64357;51.344;6.550;2022-11-11T02:54:56;8.20;;;2.63;;
75739;SDS011;64357;51.344;6.550;2022-11-11T02:57:25;8.75;;;2.75;;
75739;SDS011;64357;51.344;6.550;2022-11-11T02:59:51;8.75;;;2.47;;
75739;SDS011;64357;51.344;6.550;2022-11-11T03:02:20;8.65;;;2.40;;
75739;SDS011;64357;51.344;6.550;2022-11-11T03:04:45;11.47;;;2.73;;
75739;SDS011;64357;51.344;6.550;2022-11-11T03:07:13;9.52;;;3.00;;
75739;SDS011;64357;51.344;6.550;2022-11-11T03:09:38;14.90;;;2.93;;
75739;SDS011;64357;51.344;6.550;2022-11-11T03:12:04;10.40;;;2.87;;
75739;SDS011;64357;51.344;6.550;2022-11-11T03:14:31;9.65;;;2.80;;
75739;SDS011;64357;51.344;6.550;2022-11-11T03:16:56;8.23;;;2.90;;
75739;SDS011;64357;51.344;6.550;2022-11-11T03:19:43;11.52;;;3.50;;
75739;SDS011;64357;51.344;6.550;2022-11-11T03:22:08;9.02;;;2.75;;
75739;SDS011;64357;51.344;6.550;2022-11-11T03:24:33;9.33;;;3.13;;
75739;SDS011;64357;51.344;6.550;2022-11-11T03:27:17;8.13;;;3.28;;
75739;SDS011;64357;51.344;6.550;2022-11-11T03:29:42;9.47;;;3.23;;
75739;SDS011;64357;51.344;6.550;2022-11-11T03:32:08;9.37;;;3.37;;
75739;SDS011;64357;51.344;6.550;2022-11-11T03:34:33;8.60;;;3.47;;
75739;SDS011;64357;51.344;6.550;2022-11-11T03:36:59;11.40;;;3.42;;
75739;SDS011;64357;51.344;6.550;2022-11-11T03:39:43;11.27;;;3.55;;
75739;SDS011;64357;51.344;6.550;2022-11-11T03:42:08;7.77;;;3.10;;
75739;SDS011;64357;51.344;6.550;2022-11-11T03:44:33;10.17;;;3.07;;
75739;SDS011;64357;51.344;6.550;2022-11-11T03:46:59;10.70;;;3.13;;
75739;SDS011;64357;51.344;6.550;2022-11-11T03:49:26;9.35;;;3.55;;
75739;SDS011;64357;51.344;6.550;2022-11-11T03:51:52;9.03;;;2.90;;
75739;SDS011;64357;51.344;6.550;2022-11-11T03:54:17;11.23;;;3.40;;
75739;SDS011;64357;51.344;6.550;2022-11-11T03:56:45;9.00;;;3.23;;
75739;SDS011;64357;51.344;6.550;2022-11-11T03:59:10;9.75;;;3.60;;
75739;SDS011;64357;51.344;6.550;2022-11-11T04:01:36;10.97;;;3.73;;
75739;SDS011;64357;51.344;6.550;2022-11-11T04:04:19;10.38;;;3.35;;
75739;SDS011;64357;51.344;6.550;2022-11-11T04:07:03;11.40;;;3.38;;
75739;SDS011;64357;51.344;6.550;2022-11-11T04:09:47;8.98;;;3.40;;
75739;SDS011;64357;51.344;6.550;2022-11-11T04:12:32;12.88;;;3.25;;
75739;SDS011;64357;51.344;6.550;2022-11-11T04:15:20;9.85;;;3.47;;
75739;SDS011;64357;51.344;6.550;2022-11-11T04:18:04;12.15;;;4.18;;
75739;SDS011;64357;51.344;6.550;2022-11-11T04:20:32;14.23;;;4.07;;
75739;SDS011;64357;51.344;6.550;2022-11-11T04:23:16;12.90;;;4.45;;
75739;SDS011;64357;51.344;6.550;2022-11-11T04:25:43;12.00;;;3.83;;
75739;SDS011;64357;51.344;6.550;2022-11-11T04:28:14;15.25;;;4.55;;
75739;SDS011;64357;51.344;6.550;2022-11-11T04:30:58;13.50;;;4.55;;
75739;SDS011;64357;51.344;6.550;2022-11-11T04:33:24;12.00;;;4.50;;
75739;SDS011;64357;51.344;6.550;2022-11-11T04:35:52;11.40;;;4.40;;
75739;SDS011;64357;51.344;6.550;2022-11-11T04:38:17;11.73;;;4.47;;
75739;SDS011;64357;51.344;6.550;2022-11-11T04:41:03;17.55;;;4.85;;
75739;SDS011;64357;51.344;6.550;2022-11-11T04:43:33;13.32;;;4.88;;
75739;SDS011;64357;51.344;6.550;2022-11-11T04:46:18;11.25;;;4.22;;
75739;SDS011;64357;51.344;6.550;2022-11-11T04:48:46;14.65;;;4.43;;
75739;SDS011;64357;51.344;6.550;2022-11-11T04:51:11;11.27;;;4.30;;
75739;SDS011;64357;51.344;6.550;2022-11-11T04:53:36;14.43;;;4.57;;
75739;SDS011;64357;51.344;6.550;2022-11-11T04:56:04;10.90;;;4.25;;
75739;SDS011;64357;51.344;6.550;2022-11-11T04:58:49;11.07;;;4.55;;
75739;SDS011;64357;51.344;6.550;2022-11-11T05:01:34;12.45;;;4.75;;
75739;SDS011;64357;51.344;6.550;2022-11-11T05:04:20;13.15;;;4.57;;
75739;SDS011;64357;51.344;6.550;2022-11-11T05:06:46;10.90;;;4.70;;
75739;SDS011;64357;51.344;6.550;2022-11-11T05:09:30;13.25;;;4.72;;
75739;SDS011;64357;51.344;6.550;2022-11-11T05:11:55;11.50;;;4.50;;
75739;SDS011;64357;51.344;6.550;2022-11-11T05:14:20;13.30;;;4.87;;
75739;SDS011;64357;51.344;6.550;2022-11-11T05:17:04;11.20;;;4.65;;
75739;SDS011;64357;51.344;6.550;2022-11-11T05:19:48;11.57;;;4.63;;
75739;SDS011;64357;51.344;6.550;2022-11-11T05:22:39;12.07;;;4.80;;
75739;SDS011;64357;51.344;6.550;2022-11-11T05:25:05;13.93;;;4.85;;
75739;SDS011;64357;51.344;6.550;2022-11-11T05:27:50;12.27;;;4.13;;
75739;SDS011;64357;51.344;6.550;2022-11-11T05:30:19;11.77;;;4.40;;
75739;SDS011;64357;51.344;6.550;2022-11-11T05:32:48;17.15;;;5.03;;
75739;SDS011;64357;51.344;6.550;2022-11-11T05:35:14;13.38;;;4.53;;
75739;SDS011;64357;51.344;6.550;2022-11-11T05:37:40;10.63;;;3.95;;
75739;SDS011;64357;51.344;6.550;2022-11-11T05:40:06;14.85;;;4.00;;
75739;SDS011;64357;51.344;6.550;2022-11-11T05:42:33;9.88;;;3.97;;
75739;SDS011;64357;51.344;6.550;2022-11-11T05:45:01;11.38;;;4.45;;
75739;SDS011;64357;51.344;6.550;2022-11-11T05:47:27;14.40;;;5.55;;
75739;SDS011;64357;51.344;6.550;2022-11-11T05:49:52;9.30;;;4.17;;
75739;SDS011;64357;51.344;6.550;2022-11-11T05:52:20;11.07;;;4.13;;
75739;SDS011;64357;51.344;6.550;2022-11-11T05:54:47;13.65;;;4.85;;
75739;SDS011;64357;51.344;6.550;2022-11-11T05:57:15;11.82;;;4.20;;
75739;SDS011;64357;51.344;6.550;2022-11-11T05:59:40;10.23;;;3.80;;
75739;SDS011;64357;51.344;6.550;2022-11-11T06:02:06;10.30;;;4.30;;
75739;SDS011;64357;51.344;6.550;2022-11-11T06:04:31;11.23;;;4.03;;
75739;SDS011;64357;51.344;6.550;2022-11-11T06:06:59;10.70;;;3.85;;
75739;SDS011;64357;51.344;6.550;2022-11-11T06:09:24;11.27;;;3.77;;
75739;SDS011;64357;51.344;6.550;2022-11-11T06:11:49;10.67;;;3.73;;
75739;SDS011;64357;51.344;6.550;2022-11-11T06:14:14;10.07;;;4.17;;
75739;SDS011;64357;51.344;6.550;2022-11-11T06:16:40;22.50;;;3.87;;
75739;SDS011;64357;51.344;6.550;2022-11-11T06:19:05;11.77;;;3.47;;
75739;SDS011;64357;51.344;6.550;2022-11-11T06:21:33;11.35;;;3.42;;
75739;SDS011;64357;51.344;6.550;2022-11-11T06:24:18;9.68;;;3.83;;
75739;SDS011;64357;51.344;6.550;2022-11-11T06:26:44;9.10;;;3.20;;
75739;SDS011;64357;51.344;6.550;2022-11-11T06:29:09;9.83;;;3.90;;
75739;SDS011;64357;51.344;6.550;2022-11-11T06:31:37;14.20;;;3.60;;
75739;SDS011;64357;51.344;6.550;2022-11-11T06:34:02;12.57;;;4.33;;
75739;SDS011;64357;51.344;6.550;2022-11-11T06:36:27;9.37;;;2.90;;
75739;SDS011;64357;51.344;6.550;2022-11-11T06:38:53;11.43;;;3.77;;
75739;SDS011;64357;51.344;6.550;2022-11-11T06:41:18;9.65;;;3.60;;
75739;SDS011;64357;51.344;6.550;2022-11-11T06:43:44;9.60;;;3.63;;
75739;SDS011;64357;51.344;6.550;2022-11-11T06:46:22;11.85;;;3.70;;
75739;SDS011;64357;51.344;6.550;2022-11-11T06:48:48;8.52;;;3.38;;
75739;SDS011;64357;51.344;6.550;2022-11-11T06:51:14;11.30;;;3.55;;
75739;SDS011;64357;51.344;6.550;2022-11-11T06:53:40;11.52;;;4.22;;
75739;SDS011;64357;51.344;6.550;2022-11-11T06:56:06;13.13;;;4.25;;
75739;SDS011;64357;51.344;6.550;2022-11-11T06:58:34;10.25;;;3.70;;
75739;SDS011;64357;51.344;6.550;2022-11-11T07:01:02;10.63;;;4.00;;
75739;SDS011;64357;51.344;6.550;2022-11-11T07:03:33;9.68;;;3.63;;
75739;SDS011;64357;51.344;6.550;2022-11-11T07:05:59;11.10;;;3.63;;
75739;SDS011;64357;51.344;6.550;2022-11-11T07:08:26;11.90;;;4.47;;
75739;SDS011;64357;51.344;6.550;2022-11-11T07:10:51;11.43;;;4.00;;
75739;SDS011;64357;51.344;6.550;2022-11-11T07:13:17;9.67;;;3.50;;
75739;SDS011;64357;51.344;6.550;2022-11-11T07:15:42;13.70;;;4.53;;
75739;SDS011;64357;51.344;6.550;2022-11-11T07:18:09;10.93;;;3.97;;
75739;SDS011;64357;51.344;6.550;2022-11-11T07:20:35;10.82;;;3.58;;
75739;SDS011;64357;51.344;6.550;2022-11-11T07:23:01;9.40;;;3.63;;
75739;SDS011;64357;51.344;6.550;2022-11-11T07:25:27;9.35;;;3.63;;
75739;SDS011;64357;51.344;6.550;2022-11-11T07:27:55;11.90;;;3.70;;
75739;SDS011;64357;51.344;6.550;2022-11-11T07:30:23;10.68;;;3.85;;
75739;SDS011;64357;51.344;6.550;2022-11-11T07:32:51;12.05;;;3.53;;
75739;SDS011;64357;51.344;6.550;2022-11-11T07:35:17;10.90;;;3.60;;
75739;SDS011;64357;51.344;6.550;2022-11-11T07:37:48;10.18;;;3.28;;
75739;SDS011;64357;51.344;6.550;2022-11-11T07:40:14;10.43;;;3.38;;
75739;SDS011;64357;51.344;6.550;2022-11-11T07:42:41;8.75;;;3.50;;
75739;SDS011;64357;51.344;6.550;2022-11-11T07:45:07;9.45;;;3.47;;
75739;SDS011;64357;51.344;6.550;2022-11-11T07:47:34;11.45;;;4.20;;
75739;SDS011;64357;51.344;6.550;2022-11-11T07:50:00;8.93;;;2.80;;
75739;SDS011;64357;51.344;6.550;2022-11-11T07:52:29;10.68;;;2.85;;
75739;SDS011;64357;51.344;6.550;2022-11-11T07:54:55;8.10;;;2.92;;
75739;SDS011;64357;51.344;6.550;2022-11-11T07:57:20;10.40;;;3.35;;
75739;SDS011;64357;51.344;6.550;2022-11-11T07:59:46;12.23;;;3.57;;
75739;SDS011;64357;51.344;6.550;2022-11-11T08:02:11;10.00;;;3.37;;
75739;SDS011;64357;51.344;6.550;2022-11-11T08:04:37;8.77;;;3.25;;
75739;SDS011;64357;51.344;6.550;2022-11-11T08:07:05;8.52;;;3.08;;
75739;SDS011;64357;51.344;6.550;2022-11-11T08:09:31;9.73;;;3.20;;
75739;SDS011;64357;51.344;6.550;2022-11-11T08:11:58;8.85;;;3.20;;
75739;SDS011;64357;51.344;6.550;2022-11-11T08:14:42;10.88;;;3.75;;
75739;SDS011;64357;51.344;6.550;2022-11-11T08:17:07;8.00;;;3.20;;
75739;SDS011;64357;51.344;6.550;2022-11-11T08:19:33;10.00;;;3.40;;
75739;SDS011;64357;51.344;6.550;2022-11-11T08:21:58;9.77;;;3.30;;
75739;SDS011;64357;51.344;6.550;2022-11-11T08:24:26;8.02;;;3.20;;
75739;SDS011;64357;51.344;6.550;2022-11-11T08:26:54;11.05;;;3.58;;
75739;SDS011;64357;51.344;6.550;2022-11-11T08:29:22;10.88;;;3.63;;
75739;SDS011;64357;51.344;6.550;2022-11-11T08:31:47;9.47;;;3.10;;
75739;SDS011;64357;51.344;6.550;2022-11-11T08:34:15;9.05;;;3.25;;
75739;SDS011;64357;51.344;6.550;2022-11-11T08:36:40;8.97;;;2.83;;
75739;SDS011;64357;51.344;6.550;2022-11-11T08:39:08;10.80;;;3.35;;
75739;SDS011;64357;51.344;6.550;2022-11-11T08:41:36;7.75;;;3.08;;
75739;SDS011;64357;51.344;6.550;2022-11-11T08:44:01;10.40;;;3.10;;
75739;SDS011;64357;51.344;6.550;2022-11-11T08:46:28;9.10;;;3.05;;
75739;SDS011;64357;51.344;6.550;2022-11-11T08:48:54;11.68;;;3.05;;
75739;SDS011;64357;51.344;6.550;2022-11-11T08:51:19;9.00;;;3.00;;
75739;SDS011;64357;51.344;6.550;2022-11-11T08:53:45;11.15;;;3.20;;
75739;SDS011;64357;51.344;6.550;2022-11-11T08:56:10;9.38;;;3.28;;
75739;SDS011;64357;51.344;6.550;2022-11-11T08:58:36;9.00;;;2.70;;
75739;SDS011;64357;51.344;6.550;2022-11-11T09:01:02;9.32;;;2.90;;
75739;SDS011;64357;51.344;6.550;2022-11-11T09:03:28;9.43;;;2.53;;
75739;SDS011;64357;51.344;6.550;2022-11-11T09:05:54;6.68;;;2.15;;
75739;SDS011;64357;51.344;6.550;2022-11-11T09:08:19;8.73;;;3.15;;
75739;SDS011;64357;51.344;6.550;2022-11-11T09:10:47;7.88;;;2.70;;
75739;SDS011;64357;51.344;6.550;2022-11-11T09:13:17;8.00;;;2.88;;
75739;SDS011;64357;51.344;6.550;2022-11-11T09:15:45;8.57;;;2.75;;
75739;SDS011;64357;51.344;6.550;2022-11-11T09:18:10;8.37;;;2.40;;
75739;SDS011;64357;51.344;6.550;2022-11-11T09:20:36;10.43;;;2.67;;
75739;SDS011;64357;51.344;6.550;2022-11-11T09:23:01;8.03;;;2.60;;
75739;SDS011;64357;51.344;6.550;2022-11-11T09:25:26;8.47;;;2.80;;
75739;SDS011;64357;51.344;6.550;2022-11-11T09:28:01;6.97;;;2.43;;
75739;SDS011;64357;51.344;6.550;2022-11-11T09:30:27;7.75;;;2.83;;
75739;SDS011;64357;51.344;6.550;2022-11-11T09:32:59;7.53;;;2.90;;
75739;SDS011;64357;51.344;6.550;2022-11-11T09:35:26;9.50;;;2.55;;
75739;SDS011;64357;51.344;6.550;2022-11-11T09:37:52;8.47;;;3.00;;
75739;SDS011;64357;51.344;6.550;2022-11-11T09:40:22;7.00;;;2.80;;
75739;SDS011;64357;51.344;6.550;2022-11-11T09:45:35;10.65;;;3.05;;
75739;SDS011;64357;51.344;6.550;2022-11-11T09:51:10;7.50;;;2.65;;
75739;SDS011;64357;51.344;6.550;2022-11-11T09:53:47;7.95;;;2.70;;
75739;SDS011;64357;51.344;6.550;2022-11-11T09:56:16;11.82;;;3.72;;
75739;SDS011;64357;51.344;6.550;2022-11-11T10:01:41;10.98;;;3.30;;
75739;SDS011;64357;51.344;6.550;2022-11-11T10:06:47;10.57;;;3.45;;
75739;SDS011;64357;51.344;6.550;2022-11-11T10:14:39;9.60;;;3.47;;
75739;SDS011;64357;51.344;6.550;2022-11-11T10:22:42;8.48;;;3.00;;
75739;SDS011;64357;51.344;6.550;2022-11-11T10:27:44;11.18;;;3.67;;
75739;SDS011;64357;51.344;6.550;2022-11-11T10:32:40;8.60;;;3.08;;
75739;SDS011;64357;51.344;6.550;2022-11-11T10:35:13;9.73;;;2.97;;
75739;SDS011;64357;51.344;6.550;2022-11-11T10:37:39;9.40;;;3.42;;
75739;SDS011;64357;51.344;6.550;2022-11-11T10:42:41;7.15;;;3.00;;
75739;SDS011;64357;51.344;6.550;2022-11-11T10:55:42;9.43;;;3.00;;
75739;SDS011;64357;51.344;6.550;2022-11-11T11:00:48;8.60;;;3.15;;
75739;SDS011;64357;51.344;6.550;2022-11-11T11:05:51;8.63;;;2.87;;
75739;SDS011;64357;51.344;6.550;2022-11-11T11:08:20;9.27;;;3.05;;
75739;SDS011;64357;51.344;6.550;2022-11-11T11:10:51;9.35;;;3.05;;
75739;SDS011;64357;51.344;6.550;2022-11-11T11:13:29;7.13;;;3.10;;
75739;SDS011;64357;51.344;6.550;2022-11-11T11:16:04;9.48;;;2.78;;
75739;SDS011;64357;51.344;6.550;2022-11-11T11:18:34;10.07;;;2.90;;
75739;SDS011;64357;51.344;6.550;2022-11-11T11:21:01;7.40;;;3.03;;
75739;SDS011;64357;51.344;6.550;2022-11-11T11:23:41;9.00;;;3.45;;
75739;SDS011;64357;51.344;6.550;2022-11-11T11:26:12;11.63;;;3.17;;
75739;SDS011;64357;51.344;6.550;2022-11-11T11:28:52;9.30;;;3.42;;
75739;SDS011;64357;51.344;6.550;2022-11-11T11:31:35;7.63;;;2.67;;
75739;SDS011;64357;51.344;6.550;2022-11-11T11:34:02;10.35;;;3.00;;
75739;SDS011;64357;51.344;6.550;2022-11-11T11:36:28;10.68;;;3.67;;
75739;SDS011;64357;51.344;6.550;2022-11-11T11:38:56;9.85;;;3.55;;
75739;SDS011;64357;51.344;6.550;2022-11-11T11:41:41;11.65;;;3.28;;
75739;SDS011;64357;51.344;6.550;2022-11-11T11:44:25;9.80;;;2.80;;
75739;SDS011;64357;51.344;6.550;2022-11-11T11:52:38;8.15;;;3.17;;
75739;SDS011;64357;51.344;6.550;2022-11-11T12:00:34;7.70;;;2.95;;
75739;SDS011;64357;51.344;6.550;2022-11-11T12:09:45;8.73;;;3.38;;
75739;SDS011;64357;51.344;6.550;2022-11-11T12:20:40;9.25;;;3.20;;
75739;SDS011;64357;51.344;6.550;2022-11-11T12:36:48;9.82;;;3.08;;
75739;SDS011;64357;51.344;6.550;2022-11-11T12:42:10;8.48;;;2.92;;
75739;SDS011;64357;51.344;6.550;2022-11-11T12:45:06;9.27;;;3.28;;
75739;SDS011;64357;51.344;6.550;2022-11-11T12:47:46;14.27;;;3.58;;
75739;SDS011;64357;51.344;6.550;2022-11-11T13:01:54;6.28;;;2.50;;
75739;SDS011;64357;51.344;6.550;2022-11-11T13:09:41;6.80;;;2.75;;
75739;SDS011;64357;51.344;6.550;2022-11-11T13:12:33;9.23;;;2.88;;
75739;SDS011;64357;51.344;6.550;2022-11-11T13:15:17;8.88;;;2.70;;
75739;SDS011;64357;51.344;6.550;2022-11-11T13:17:59;7.68;;;2.58;;
75739;SDS011;64357;51.344;6.550;2022-11-11T13:23:21;7.72;;;2.80;;
75739;SDS011;64357;51.344;6.550;2022-11-11T13:25:47;8.32;;;2.70;;
75739;SDS011;64357;51.344;6.550;2022-11-11T13:28:25;10.93;;;2.55;;
75739;SDS011;64357;51.344;6.550;2022-11-11T13:33:49;6.38;;;2.28;;
75739;SDS011;64357;51.344;6.550;2022-11-11T13:36:20;7.28;;;2.33;;
75739;SDS011;64357;51.344;6.550;2022-11-11T13:39:10;7.18;;;2.25;;
75739;SDS011;64357;51.344;6.550;2022-11-11T13:41:50;10.77;;;2.70;;
75739;SDS011;64357;51.344;6.550;2022-11-11T13:44:21;6.63;;;2.30;;
75739;SDS011;64357;51.344;6.550;2022-11-11T13:47:03;6.53;;;2.40;;
75739;SDS011;64357;51.344;6.550;2022-11-11T13:49:35;8.27;;;2.65;;
75739;SDS011;64357;51.344;6.550;2022-11-11T13:52:18;6.63;;;2.60;;
75739;SDS011;64357;51.344;6.550;2022-11-11T13:54:51;5.85;;;1.70;;
75739;SDS011;64357;51.344;6.550;2022-11-11T13:57:24;6.88;;;2.63;;
75739;SDS011;64357;51.344;6.550;2022-11-11T14:02:33;7.50;;;2.35;;
75739;SDS011;64357;51.344;6.550;2022-11-11T14:18:02;7.03;;;2.40;;
75739;SDS011;64357;51.344;6.550;2022-11-11T14:28:31;8.43;;;2.80;;
75739;SDS011;64357;51.344;6.550;2022-11-11T14:33:44;11.68;;;2.78;;
75739;SDS011;64357;51.344;6.550;2022-11-11T14:36:18;9.25;;;3.40;;
75739;SDS011;64357;51.344;6.550;2022-11-11T14:41:45;10.45;;;3.13;;
75739;SDS011;64357;51.344;6.550;2022-11-11T14:57:35;8.48;;;2.40;;
75739;SDS011;64357;51.344;6.550;2022-11-11T15:00:04;8.80;;;3.17;;
75739;SDS011;64357;51.344;6.550;2022-11-11T15:02:34;8.50;;;2.97;;
75739;SDS011;64357;51.344;6.550;2022-11-11T15:05:04;6.90;;;2.40;;
75739;SDS011;64357;51.344;6.550;2022-11-11T15:20:58;8.05;;;2.58;;
75739;SDS011;64357;51.344;6.550;2022-11-11T15:26:26;8.77;;;2.60;;
75739;SDS011;64357;51.344;6.550;2022-11-11T15:29:11;8.00;;;2.35;;
75739;SDS011;64357;51.344;6.550;2022-11-11T15:35:21;9.25;;;2.90;;
75739;SDS011;64357;51.344;6.550;2022-11-11T15:37:55;7.93;;;2.88;;
75739;SDS011;64357;51.344;6.550;2022-11-11T15:40:40;9.35;;;2.83;;
75739;SDS011;64357;51.344;6.550;2022-11-11T15:43:14;8.90;;;3.47;;
75739;SDS011;64357;51.344;6.550;2022-11-11T15:45:49;11.30;;;3.50;;
75739;SDS011;64357;51.344;6.550;2022-11-11T15:50:57;10.05;;;3.00;;
75739;SDS011;64357;51.344;6.550;2022-11-11T15:53:26;8.95;;;3.08;;
75739;SDS011;64357;51.344;6.550;2022-11-11T15:55:54;8.68;;;3.08;;
75739;SDS011;64357;51.344;6.550;2022-11-11T15:58:30;9.55;;;2.80;;
75739;SDS011;64357;51.344;6.550;2022-11-11T16:01:00;7.80;;;3.00;;
75739;SDS011;64357;51.344;6.550;2022-11-11T16:04:01;7.28;;;2.67;;
75739;SDS011;64357;51.344;6.550;2022-11-11T16:06:20;8.63;;;2.40;;
75739;SDS011;64357;51.344;6.550;2022-11-11T16:08:46;9.27;;;2.70;;
75739;SDS011;64357;51.344;6.550;2022-11-11T16:11:16;8.85;;;3.53;;
75739;SDS011;64357;51.344;6.550;2022-11-11T16:13:52;10.90;;;3.33;;
75739;SDS011;64357;51.344;6.550;2022-11-11T16:16:29;9.43;;;3.85;;
75739;SDS011;64357;51.344;6.550;2022-11-11T16:19:02;8.80;;;2.90;;
75739;SDS011;64357;51.344;6.550;2022-11-11T16:21:36;11.68;;;3.97;;
75739;SDS011;64357;51.344;6.550;2022-11-11T16:24:12;11.80;;;3.15;;
75739;SDS011;64357;51.344;6.550;2022-11-11T16:26:47;10.18;;;3.60;;
75739;SDS011;64357;51.344;6.550;2022-11-11T16:29:15;11.25;;;3.53;;
75739;SDS011;64357;51.344;6.550;2022-11-11T16:31:43;9.98;;;3.53;;
75739;SDS011;64357;51.344;6.550;2022-11-11T16:39:24;9.15;;;3.08;;
75739;SDS011;64357;51.344;6.550;2022-11-11T16:41:51;8.05;;;2.60;;
75739;SDS011;64357;51.344;6.550;2022-11-11T16:47:36;10.43;;;3.22;;
75739;SDS011;64357;51.344;6.550;2022-11-11T16:52:37;9.35;;;2.65;;
75739;SDS011;64357;51.344;6.550;2022-11-11T16:55:05;9.07;;;2.90;;
75739;SDS011;64357;51.344;6.550;2022-11-11T16:57:32;8.32;;;3.05;;
75739;SDS011;64357;51.344;6.550;2022-11-11T16:59:59;8.93;;;2.72;;
75739;SDS011;64357;51.344;6.550;2022-11-11T17:02:28;13.07;;;3.22;;
75739;SDS011;64357;51.344;6.550;2022-11-11T17:04:54;11.80;;;4.43;;
75739;SDS011;64357;51.344;6.550;2022-11-11T17:07:29;14.38;;;4.40;;
75739;SDS011;64357;51.344;6.550;2022-11-11T17:10:15;12.55;;;3.97;;
75739;SDS011;64357;51.344;6.550;2022-11-11T17:12:44;15.43;;;5.20;;
75739;SDS011;64357;51.344;6.550;2022-11-11T17:15:12;12.02;;;4.43;;
75739;SDS011;64357;51.344;6.550;2022-11-11T17:17:42;10.70;;;3.25;;
75739;SDS011;64357;51.344;6.550;2022-11-11T17:20:12;9.23;;;2.85;;
75739;SDS011;64357;51.344;6.550;2022-11-11T17:22:47;11.15;;;3.42;;
75739;SDS011;64357;51.344;6.550;2022-11-11T17:25:13;16.60;;;5.63;;
75739;SDS011;64357;51.344;6.550;2022-11-11T17:27:39;9.57;;;2.87;;
75739;SDS011;64357;51.344;6.550;2022-11-11T17:30:06;9.43;;;2.88;;
75739;SDS011;64357;51.344;6.550;2022-11-11T17:32:32;9.18;;;2.78;;
75739;SDS011;64357;51.344;6.550;2022-11-11T17:34:57;10.60;;;3.10;;
75739;SDS011;64357;51.344;6.550;2022-11-11T17:37:23;8.93;;;3.27;;
75739;SDS011;64357;51.344;6.550;2022-11-11T17:39:50;7.80;;;2.53;;
75739;SDS011;64357;51.344;6.550;2022-11-11T17:42:16;7.32;;;2.90;;
75739;SDS011;64357;51.344;6.550;2022-11-11T17:44:44;8.23;;;2.80;;
75739;SDS011;64357;51.344;6.550;2022-11-11T17:47:09;11.20;;;3.33;;
75739;SDS011;64357;51.344;6.550;2022-11-11T17:49:37;10.20;;;2.80;;
75739;SDS011;64357;51.344;6.550;2022-11-11T17:52:03;10.50;;;2.80;;
75739;SDS011;64357;51.344;6.550;2022-11-11T17:54:31;11.25;;;2.95;;
75739;SDS011;64357;51.344;6.550;2022-11-11T17:56:58;8.35;;;3.10;;
75739;SDS011;64357;51.344;6.550;2022-11-11T17:59:23;9.48;;;2.28;;
75739;SDS011;64357;51.344;6.550;2022-11-11T18:01:50;7.57;;;2.60;;
75739;SDS011;64357;51.344;6.550;2022-11-11T18:04:15;9.77;;;2.85;;
75739;SDS011;64357;51.344;6.550;2022-11-11T18:06:43;9.93;;;3.30;;
75739;SDS011;64357;51.344;6.550;2022-11-11T18:09:09;7.18;;;2.35;;
75739;SDS011;64357;51.344;6.550;2022-11-11T18:11:34;7.50;;;2.35;;
75739;SDS011;64357;51.344;6.550;2022-11-11T18:14:00;6.80;;;2.60;;